Time;durP1;ratioP1;P1;durP2;ratioP2;P2;SDS_P1;SDS_P2;PMS_P1;PMS_P2;Temp;Humidity;BMP_temperature;BMP_pressure;BME280_temperature;BME280_humidity;BME280_pressure;Samples;Min_cycle;Max_cycle;Signal;HPM_P1;HPM_P2
2024/01/20 00:01:02;;;;;;;;;;;0.00;87.00;;;;;;4956431;28;20467;-71
2024/01/20 00:03:35;;;;;;;;;;;0.00;87.00;;;;;;4960578;28;19930;-70
2024/01/20 00:06:08;;;;;;;;;;;0.00;86.90;;;;;;4955192;28;19938;-71
2024/01/20 00:08:41;;;;;;;;;;;0.00;86.90;;;;;;4956759;28;19942;-71
2024/01/20 00:11:15;;;;;;;;;;;-3276.70;87.00;;;;;;4957218;28;20025;-69
2024/01/20 01:00:27;;;;;;;;;;;0.00;86.10;;;;;;4944422;28;19984;-72
2024/01/20 01:03:01;;;;;;;;;;;0.00;86.00;;;;;;4953109;28;20052;-72
2024/01/20 01:05:34;;;;;;;;;;;0.00;86.10;;;;;;4957113;28;19974;-71
2024/01/20 01:08:13;;;;;;;;;;;0.00;86.00;;;;;;4957322;28;19930;-71
2024/01/20 01:10:47;;;;;;;;;;;0.00;86.00;;;;;;4957684;28;19957;-72
2024/01/20 01:13:20;;;;;;;;;;;0.00;85.90;;;;;;4956652;28;19930;-73
2024/01/20 01:15:54;;;;;;;;;;;0.00;85.90;;;;;;4959758;28;19934;-73
2024/01/20 01:18:28;;;;;;;;;;;0.00;85.80;;;;;;4953959;28;19949;-71
2024/01/20 01:21:01;;;;;;;;;;;0.00;85.90;;;;;;4956422;28;19931;-71
2024/01/20 01:23:34;;;;;;;;;;;0.00;85.80;;;;;;4957336;28;19995;-71
2024/01/20 01:26:07;;;;;;;;;;;0.00;85.80;;;;;;4956438;28;19930;-72
2024/01/20 01:28:40;;;;;;;;;;;0.00;85.80;;;;;;4956092;28;19931;-70
2024/01/20 01:31:14;;;;;;;;;;;0.00;85.70;;;;;;4956467;28;19933;-71
2024/01/20 01:33:48;;;;;;;;;;;0.00;85.60;;;;;;4955408;28;19969;-71
2024/01/20 01:36:21;;;;;;;;;;;0.00;85.60;;;;;;4953051;28;19934;-71
2024/01/20 01:38:48;;;;;;;;;;;0.00;85.80;;;;;;4959716;28;19930;-72
2024/01/20 01:41:21;;;;;;;;;;;0.00;85.80;;;;;;4959512;28;19938;-70
2024/01/20 01:43:54;;;;;;;;;;;0.00;85.80;;;;;;4959986;28;20003;-71
2024/01/20 01:46:28;;;;;;;;;;;0.00;85.60;;;;;;4956371;28;19992;-71
2024/01/20 01:49:02;;;;;;;;;;;0.00;85.80;;;;;;4958049;28;20016;-70
2024/01/20 01:51:36;;;;;;;;;;;-3276.70;85.70;;;;;;4960127;28;19971;-72
2024/01/20 01:54:10;;;;;;;;;;;-3276.70;85.80;;;;;;4958223;28;19933;-72
2024/01/20 01:56:44;;;;;;;;;;;-3276.70;85.80;;;;;;4960609;28;19926;-71
2024/01/20 01:59:17;;;;;;;;;;;-3276.70;85.80;;;;;;4958197;28;20013;-72
2024/01/20 02:01:45;;;;;;;;;;;-3276.70;85.70;;;;;;4959971;28;19956;-72
2024/01/20 02:04:18;;;;;;;;;;;-3276.70;85.70;;;;;;4957902;28;19930;-71
2024/01/20 02:06:51;;;;;;;;;;;-3276.70;85.80;;;;;;4959968;28;19931;-71
2024/01/20 02:09:24;;;;;;;;;;;-3276.70;85.80;;;;;;4957533;28;19935;-63
2024/01/20 02:11:58;;;;;;;;;;;-3276.60;85.70;;;;;;4961262;28;19932;-61
2024/01/20 02:14:31;;;;;;;;;;;-3276.60;85.80;;;;;;4960204;28;19933;-64
2024/01/20 02:17:07;;;;;;;;;;;-3276.60;85.70;;;;;;4959059;28;19950;-64
2024/01/20 02:19:40;;;;;;;;;;;-3276.60;85.80;;;;;;4959849;28;19931;-62
2024/01/20 02:22:16;;;;;;;;;;;-3276.70;85.70;;;;;;4959981;28;19930;-63
2024/01/20 02:24:50;;;;;;;;;;;-3276.60;85.70;;;;;;4959530;28;20010;-61
2024/01/20 02:27:23;;;;;;;;;;;-3276.60;85.60;;;;;;4959355;28;19930;-62
2024/01/20 02:29:56;;;;;;;;;;;-3276.60;85.70;;;;;;4960786;28;19930;-61
2024/01/20 02:32:29;;;;;;;;;;;-3276.60;85.70;;;;;;4959949;28;19930;-63
2024/01/20 02:35:03;;;;;;;;;;;-3276.60;85.60;;;;;;4958521;28;20411;-61
2024/01/20 02:37:31;;;;;;;;;;;-3276.50;85.50;;;;;;4960309;28;19937;-62
2024/01/20 02:40:04;;;;;;;;;;;-3276.50;85.70;;;;;;4953877;28;20434;-62
2024/01/20 02:42:38;;;;;;;;;;;-3276.50;85.70;;;;;;4960335;28;20368;-61
2024/01/20 02:45:11;;;;;;;;;;;-3276.60;85.70;;;;;;4957581;28;20635;-62
2024/01/20 02:47:44;;;;;;;;;;;-3276.50;85.40;;;;;;4958230;28;19990;-63
2024/01/20 02:50:17;;;;;;;;;;;-3276.40;85.50;;;;;;4957957;28;19957;-63
2024/01/20 02:52:52;;;;;;;;;;;-3276.40;85.70;;;;;;4959001;28;20023;-62
2024/01/20 02:55:25;;;;;;;;;;;-3276.40;85.70;;;;;;4959539;28;20021;-61
2024/01/20 02:57:58;;;;;;;;;;;-3276.50;85.60;;;;;;4961032;28;19933;-63
2024/01/20 03:00:31;;;;;;;;;;;-3276.50;85.60;;;;;;4958837;28;19980;-62
2024/01/20 03:03:04;;;;;;;;;;;-3276.50;85.50;;;;;;4959988;28;19926;-63
2024/01/20 03:05:38;;;;;;;;;;;-3276.50;85.50;;;;;;4958147;28;19926;-61
2024/01/20 03:08:12;;;;;;;;;;;-3276.50;85.50;;;;;;4958985;28;19933;-64
2024/01/20 03:10:46;;;;;;;;;;;-3276.50;85.60;;;;;;4956691;28;19933;-64
2024/01/20 03:13:19;;;;;;;;;;;-3276.50;85.50;;;;;;4958655;28;19926;-62
2024/01/20 03:15:52;;;;;;;;;;;-3276.40;85.40;;;;;;4960116;28;19933;-62
2024/01/20 03:18:25;;;;;;;;;;;-3276.50;85.40;;;;;;4958331;28;19926;-60
2024/01/20 03:20:58;;;;;;;;;;;-3276.40;85.40;;;;;;4959964;28;19926;-61
2024/01/20 03:23:32;;;;;;;;;;;-3276.50;85.40;;;;;;4960798;28;20408;-61
2024/01/20 03:26:06;;;;;;;;;;;-3276.50;85.30;;;;;;4959379;28;19937;-61
2024/01/20 03:28:40;;;;;;;;;;;-3276.40;85.20;;;;;;4959830;28;19931;-61
2024/01/20 03:31:07;;;;;;;;;;;-3276.50;85.30;;;;;;4960032;28;19933;-60
2024/01/20 03:33:40;;;;;;;;;;;-3276.50;85.30;;;;;;4960449;28;19930;-61
2024/01/20 03:36:13;;;;;;;;;;;-3276.40;85.30;;;;;;4960330;28;19931;-61
2024/01/20 03:38:47;;;;;;;;;;;-3276.50;85.40;;;;;;4951471;28;19926;-61
2024/01/20 03:41:21;;;;;;;;;;;-3276.40;85.40;;;;;;4958244;28;20075;-61
2024/01/20 03:43:54;;;;;;;;;;;-3276.50;85.30;;;;;;4958013;28;19938;-61
2024/01/20 03:46:27;;;;;;;;;;;-3276.50;85.30;;;;;;4959259;28;19937;-61
2024/01/20 03:49:00;;;;;;;;;;;-3276.50;85.20;;;;;;4960991;28;19969;-62
2024/01/20 03:51:33;;;;;;;;;;;-3276.50;85.30;;;;;;4958853;28;20026;-62
2024/01/20 03:54:02;;;;;;;;;;;-3276.50;85.30;;;;;;4960943;28;20012;-61
2024/01/20 03:56:41;;;;;;;;;;;-3276.50;85.40;;;;;;4959691;28;19932;-61
2024/01/20 03:59:14;;;;;;;;;;;-3276.40;85.40;;;;;;4957664;28;19933;-61
2024/01/20 04:01:47;;;;;;;;;;;-3276.50;85.40;;;;;;4959384;28;19937;-61
2024/01/20 04:04:20;;;;;;;;;;;-3276.60;85.40;;;;;;4959901;28;19933;-63
2024/01/20 04:06:47;;;;;;;;;;;-3276.50;85.20;;;;;;4959121;28;19933;-61
2024/01/20 04:09:21;;;;;;;;;;;-3276.40;85.30;;;;;;4956237;28;20006;-61
2024/01/20 04:11:55;;;;;;;;;;;-3276.40;85.40;;;;;;4958871;28;20335;-59
2024/01/20 04:14:22;;;;;;;;;;;-3276.40;85.30;;;;;;4952913;28;19934;-63
2024/01/20 04:16:55;;;;;;;;;;;-3276.40;85.30;;;;;;4957191;28;20262;-61
2024/01/20 04:19:28;;;;;;;;;;;-3276.40;85.30;;;;;;4956243;28;20300;-60
2024/01/20 04:22:01;;;;;;;;;;;-3276.40;85.30;;;;;;4956789;28;19960;-60
2024/01/20 04:24:35;;;;;;;;;;;-3276.40;85.30;;;;;;4960169;28;19926;-61
2024/01/20 04:27:09;;;;;;;;;;;-3276.30;85.30;;;;;;4957151;28;20466;-61
2024/01/20 04:29:42;;;;;;;;;;;-3276.30;85.50;;;;;;4959190;28;19934;-59
2024/01/20 04:32:15;;;;;;;;;;;-3276.20;85.50;;;;;;4956240;28;19930;-60
2024/01/20 04:34:48;;;;;;;;;;;-3276.20;85.60;;;;;;4958651;28;19934;-60
2024/01/20 04:37:21;;;;;;;;;;;-3276.20;85.50;;;;;;4957025;28;19934;-61
2024/01/20 04:39:49;;;;;;;;;;;-3276.20;85.50;;;;;;4957344;28;20829;-60
2024/01/20 04:42:22;;;;;;;;;;;-3276.20;85.60;;;;;;4957382;28;20377;-59
2024/01/20 04:44:55;;;;;;;;;;;-3276.20;85.70;;;;;;4959255;28;20384;-59
2024/01/20 04:47:28;;;;;;;;;;;-3276.20;85.60;;;;;;4958061;28;19969;-58
2024/01/20 04:50:01;;;;;;;;;;;-3276.20;85.60;;;;;;4959682;28;19940;-59
2024/01/20 04:52:34;;;;;;;;;;;-3276.10;85.60;;;;;;4956887;28;19952;-59
2024/01/20 04:55:09;;;;;;;;;;;-3276.10;85.70;;;;;;4959312;28;19933;-60
2024/01/20 04:57:42;;;;;;;;;;;-3276.10;85.70;;;;;;4955967;28;19941;-60
2024/01/20 05:00:15;;;;;;;;;;;-3276.10;85.70;;;;;;4953373;28;19941;-60
2024/01/20 05:02:48;;;;;;;;;;;-3276.10;85.70;;;;;;4962697;28;19930;-59
2024/01/20 05:05:28;;;;;;;;;;;-3276.10;85.70;;;;;;4959192;28;19934;-61
2024/01/20 05:08:01;;;;;;;;;;;-3276.10;85.60;;;;;;4958404;28;20114;-59
2024/01/20 05:10:35;;;;;;;;;;;-3276.10;85.60;;;;;;4958653;28;19934;-58
2024/01/20 05:13:09;;;;;;;;;;;-3276.00;85.70;;;;;;4961685;28;20561;-60
2024/01/20 05:15:42;;;;;;;;;;;-3276.00;85.70;;;;;;4960957;28;19929;-59
2024/01/20 05:18:15;;;;;;;;;;;-3276.00;85.70;;;;;;4962060;28;20431;-58
2024/01/20 05:20:48;;;;;;;;;;;-3276.00;85.70;;;;;;4961621;28;19930;-59
2024/01/20 05:23:21;;;;;;;;;;;-3276.10;85.70;;;;;;4963057;28;19941;-59
2024/01/20 05:26:02;;;;;;;;;;;-3276.10;85.70;;;;;;4962097;28;19937;-60
2024/01/20 05:28:35;;;;;;;;;;;-3276.00;85.70;;;;;;4961485;28;19933;-60
2024/01/20 05:31:02;;;;;;;;;;;-3276.10;85.80;;;;;;4964180;28;19931;-59
2024/01/20 05:33:35;;;;;;;;;;;-3276.10;85.60;;;;;;4958936;28;19934;-61
2024/01/20 05:36:11;;;;;;;;;;;-3275.90;85.60;;;;;;4960946;28;19926;-59
2024/01/20 05:38:38;;;;;;;;;;;-3275.90;85.80;;;;;;4959550;28;19926;-61
2024/01/20 05:41:12;;;;;;;;;;;-3276.00;85.70;;;;;;4964014;28;19926;-60
2024/01/20 05:43:46;;;;;;;;;;;-3276.00;85.70;;;;;;4964733;28;19928;-62
2024/01/20 05:46:26;;;;;;;;;;;-3276.10;85.60;;;;;;4960966;28;19937;-61
2024/01/20 05:48:59;;;;;;;;;;;-3276.00;85.50;;;;;;4960662;28;20444;-61
2024/01/20 05:51:32;;;;;;;;;;;-3276.00;85.50;;;;;;4961668;28;19965;-61
2024/01/20 05:54:06;;;;;;;;;;;-3276.00;85.30;;;;;;4961854;28;19930;-62
2024/01/20 05:56:40;;;;;;;;;;;-3275.90;85.50;;;;;;4961853;28;20350;-61
2024/01/20 05:59:14;;;;;;;;;;;-3275.90;85.50;;;;;;4960938;28;19937;-59
2024/01/20 06:01:50;;;;;;;;;;;-3275.90;85.40;;;;;;4961138;28;19949;-61
2024/01/20 06:04:23;;;;;;;;;;;-3275.90;85.40;;;;;;4960829;28;19930;-61
2024/01/20 06:06:50;;;;;;;;;;;-3275.90;85.60;;;;;;4962510;28;19933;-61
2024/01/20 06:09:23;;;;;;;;;;;-3275.90;85.60;;;;;;4956423;28;20479;-61
2024/01/20 06:11:57;;;;;;;;;;;-3276.00;85.50;;;;;;4960661;28;20013;-61
2024/01/20 06:14:31;;;;;;;;;;;-3276.00;85.50;;;;;;4962503;28;19991;-61
2024/01/20 06:17:04;;;;;;;;;;;-3276.00;85.40;;;;;;4961183;28;20384;-61
2024/01/20 06:19:37;;;;;;;;;;;-3275.90;85.30;;;;;;4963048;28;19980;-61
2024/01/20 06:22:10;;;;;;;;;;;-3275.90;85.50;;;;;;4962080;28;19980;-61
2024/01/20 06:24:37;;;;;;;;;;;-3275.90;85.40;;;;;;4959693;28;19953;-61
2024/01/20 06:27:11;;;;;;;;;;;-3275.90;85.40;;;;;;4962551;28;19988;-60
2024/01/20 06:29:45;;;;;;;;;;;-3275.90;85.40;;;;;;4961066;28;19926;-60
2024/01/20 06:32:19;;;;;;;;;;;-3275.80;85.50;;;;;;4959987;28;19934;-61
2024/01/20 06:34:52;;;;;;;;;;;-3275.80;85.60;;;;;;4959922;28;19930;-61
2024/01/20 06:37:25;;;;;;;;;;;-3275.80;85.60;;;;;;4961162;28;19930;-60
2024/01/20 06:39:58;;;;;;;;;;;-3275.90;85.50;;;;;;4961023;28;19934;-60
2024/01/20 06:42:26;;;;;;;;;;;-3275.90;85.60;;;;;;4960377;28;20479;-61
2024/01/20 06:44:59;;;;;;;;;;;-3275.90;85.50;;;;;;4957791;28;19984;-62
2024/01/20 06:47:26;;;;;;;;;;;-3275.80;85.50;;;;;;4956008;28;19926;-63
2024/01/20 06:50:00;;;;;;;;;;;-3275.70;85.40;;;;;;4960486;28;19934;-62
2024/01/20 06:52:33;;;;;;;;;;;-3275.70;85.50;;;;;;4958542;28;19933;-62
2024/01/20 06:55:06;;;;;;;;;;;-3275.80;85.60;;;;;;4959648;28;20341;-63
2024/01/20 06:57:34;;;;;;;;;;;-3275.80;85.70;;;;;;4960300;28;19926;-63
2024/01/20 07:00:09;;;;;;;;;;;-3275.90;85.50;;;;;;4959838;28;19934;-61
2024/01/20 07:02:43;;;;;;;;;;;-3275.90;85.30;;;;;;4959403;28;20013;-62
2024/01/20 07:05:16;;;;;;;;;;;-3275.90;85.30;;;;;;4962613;28;19931;-64
2024/01/20 07:07:49;;;;;;;;;;;-3275.90;85.40;;;;;;4959699;28;19962;-63
2024/01/20 07:10:22;;;;;;;;;;;-3275.90;85.30;;;;;;4958643;28;19934;-63
2024/01/20 07:12:57;;;;;;;;;;;-3275.90;85.50;;;;;;4957481;28;19941;-63
2024/01/20 07:15:30;;;;;;;;;;;-3275.80;85.40;;;;;;4959174;28;19948;-62
2024/01/20 07:18:04;;;;;;;;;;;-3275.80;85.50;;;;;;4961034;28;20056;-63
2024/01/20 07:20:37;;;;;;;;;;;-3275.80;85.50;;;;;;4964018;28;19930;-63
2024/01/20 07:23:10;;;;;;;;;;;-3275.80;85.50;;;;;;4961672;28;19937;-60
2024/01/20 07:25:43;;;;;;;;;;;-3275.70;85.50;;;;;;4958426;28;20000;-62
2024/01/20 07:28:18;;;;;;;;;;;-3275.80;85.70;;;;;;4959878;28;19984;-61
2024/01/20 07:30:51;;;;;;;;;;;-3275.80;85.70;;;;;;4960599;28;19933;-61
2024/01/20 07:33:24;;;;;;;;;;;-3275.90;85.60;;;;;;4960721;28;19949;-62
2024/01/20 07:35:57;;;;;;;;;;;-3275.90;85.60;;;;;;4957305;28;19926;-60
2024/01/20 07:38:30;;;;;;;;;;;-3276.00;85.60;;;;;;4959991;28;19932;-61
2024/01/20 07:41:03;;;;;;;;;;;-3276.00;85.40;;;;;;4961154;28;19929;-61
2024/01/20 07:43:39;;;;;;;;;;;-3276.00;85.40;;;;;;4961588;28;19930;-62
2024/01/20 07:46:12;;;;;;;;;;;-3275.90;85.40;;;;;;4960138;28;20008;-63
2024/01/20 07:48:45;;;;;;;;;;;-3275.90;85.50;;;;;;4962507;28;20014;-62
2024/01/20 07:51:18;;;;;;;;;;;-3275.90;85.50;;;;;;4960967;28;19933;-63
2024/01/20 07:53:51;;;;;;;;;;;-3275.90;85.60;;;;;;4959053;28;19930;-61
2024/01/20 07:56:18;;;;;;;;;;;-3275.90;85.60;;;;;;4958713;28;19932;-62
2024/01/20 07:58:52;;;;;;;;;;;-3275.90;85.60;;;;;;4960342;28;19972;-59
2024/01/20 08:01:26;;;;;;;;;;;-3275.90;85.60;;;;;;4959593;28;19926;-60
2024/01/20 08:03:59;;;;;;;;;;;-3275.90;85.50;;;;;;4958637;28;19938;-61
2024/01/20 08:06:32;;;;;;;;;;;-3275.90;85.60;;;;;;4958631;28;19934;-60
2024/01/20 08:09:06;;;;;;;;;;;-3276.00;85.60;;;;;;4956480;28;19950;-60
2024/01/20 08:11:39;;;;;;;;;;;-3275.90;85.50;;;;;;4957435;28;20005;-60
2024/01/20 08:14:14;;;;;;;;;;;-3275.90;85.50;;;;;;4958189;28;19931;-59
2024/01/20 08:16:40;;;;;;;;;;;-3276.00;85.50;;;;;;4959349;28;19931;-59
2024/01/20 08:19:13;;;;;;;;;;;-3276.00;85.50;;;;;;4958739;28;20475;-61
2024/01/20 08:21:46;;;;;;;;;;;-3275.90;85.30;;;;;;4958801;28;19934;-60
2024/01/20 08:24:19;;;;;;;;;;;-3276.00;85.30;;;;;;4959170;28;19930;-63
2024/01/20 08:26:52;;;;;;;;;;;-3276.00;85.20;;;;;;4956681;28;20694;-60
2024/01/20 08:29:26;;;;;;;;;;;-3276.00;85.00;;;;;;4957443;28;19935;-60
2024/01/20 08:32:00;;;;;;;;;;;-3275.90;85.10;;;;;;4958880;28;19958;-60
2024/01/20 08:34:33;;;;;;;;;;;-3276.00;85.20;;;;;;4957630;28;19926;-60
2024/01/20 08:37:07;;;;;;;;;;;-3276.00;85.20;;;;;;4957743;28;20013;-61
2024/01/20 08:39:40;;;;;;;;;;;-3276.00;85.20;;;;;;4957977;28;19930;-60
2024/01/20 08:42:15;;;;;;;;;;;-3276.00;85.00;;;;;;4956473;28;20414;-58
2024/01/20 08:44:51;;;;;;;;;;;-3276.00;85.10;;;;;;4959201;28;19940;-61
2024/01/20 08:47:24;;;;;;;;;;;-3275.90;85.00;;;;;;4959708;28;19945;-60
2024/01/20 08:49:56;;;;;;;;;;;-3276.00;85.00;;;;;;4960033;28;19926;-60
2024/01/20 08:52:23;;;;;;;;;;;-3276.00;85.00;;;;;;4948975;28;19937;-60
2024/01/20 08:54:56;;;;;;;;;;;-3275.90;84.90;;;;;;4962312;28;19934;-60
2024/01/20 08:57:31;;;;;;;;;;;-3276.00;85.00;;;;;;4962083;28;19937;-60
2024/01/20 09:00:07;;;;;;;;;;;-3276.00;84.90;;;;;;4962938;28;20051;-59
2024/01/20 09:02:40;;;;;;;;;;;-3275.90;84.90;;;;;;4967088;28;19984;-59
2024/01/20 09:05:17;;;;;;;;;;;-3275.90;85.00;;;;;;4962441;28;19957;-60
2024/01/20 09:07:50;;;;;;;;;;;-3275.90;85.00;;;;;;4961087;28;19953;-63
2024/01/20 09:10:25;;;;;;;;;;;-3276.00;85.00;;;;;;4960809;28;19940;-64
2024/01/20 09:12:58;;;;;;;;;;;-3276.00;84.90;;;;;;4963869;28;20448;-63
2024/01/20 09:15:33;;;;;;;;;;;-3276.10;84.80;;;;;;4944702;28;19926;-63
2024/01/20 09:18:07;;;;;;;;;;;-3276.00;84.70;;;;;;4963023;28;19960;-65
2024/01/20 09:20:40;;;;;;;;;;;-3276.00;84.80;;;;;;4964464;28;19930;-63
2024/01/20 09:23:07;;;;;;;;;;;-3276.10;84.70;;;;;;4946633;28;19934;-62
2024/01/20 09:25:40;;;;;;;;;;;-3276.10;84.60;;;;;;4964337;28;20012;-62
2024/01/20 09:28:14;;;;;;;;;;;-3276.10;84.70;;;;;;4961096;28;19927;-63
2024/01/20 09:30:49;;;;;;;;;;;-3276.10;84.70;;;;;;4961905;28;19977;-64
2024/01/20 09:33:22;;;;;;;;;;;-3276.10;84.50;;;;;;4960667;28;20351;-62
2024/01/20 09:35:55;;;;;;;;;;;-3276.10;84.40;;;;;;4962846;28;19969;-64
2024/01/20 09:38:28;;;;;;;;;;;-3276.20;84.60;;;;;;4962592;28;19995;-63
2024/01/20 09:41:01;;;;;;;;;;;-3276.30;84.40;;;;;;4960667;28;19926;-64
2024/01/20 09:43:34;;;;;;;;;;;-3276.30;84.40;;;;;;4963149;28;20020;-65
2024/01/20 09:46:09;;;;;;;;;;;-3276.20;84.40;;;;;;4961015;28;19931;-64
2024/01/20 09:48:43;;;;;;;;;;;-3276.30;84.30;;;;;;4963149;28;19930;-63
2024/01/20 09:51:16;;;;;;;;;;;-3276.30;84.30;;;;;;4960211;28;19996;-63
2024/01/20 09:53:54;;;;;;;;;;;-3276.40;84.20;;;;;;4962464;28;19953;-62
2024/01/20 09:56:27;;;;;;;;;;;-3276.40;84.10;;;;;;4961120;28;20027;-62
2024/01/20 09:59:00;;;;;;;;;;;-3276.40;84.30;;;;;;4960811;28;19926;-62
2024/01/20 10:01:35;;;;;;;;;;;-3276.50;84.00;;;;;;4963504;28;19926;-63
2024/01/20 10:04:03;;;;;;;;;;;-3276.50;84.00;;;;;;4944268;28;19927;-63
2024/01/20 10:06:36;;;;;;;;;;;-3276.60;83.90;;;;;;4960160;28;20012;-62
2024/01/20 10:09:09;;;;;;;;;;;-3276.60;83.90;;;;;;4960974;28;19930;-66
2024/01/20 10:11:42;;;;;;;;;;;-3276.50;83.80;;;;;;4957046;28;19933;-63
2024/01/20 10:14:15;;;;;;;;;;;-3276.60;83.80;;;;;;4959669;28;20299;-64
2024/01/20 10:16:50;;;;;;;;;;;-3276.60;83.50;;;;;;4960174;28;21251;-63
2024/01/20 10:19:23;;;;;;;;;;;-3276.60;83.80;;;;;;4960894;28;19937;-60
2024/01/20 10:21:56;;;;;;;;;;;-3276.70;83.60;;;;;;4960181;28;19938;-60
2024/01/20 10:24:29;;;;;;;;;;;-3276.70;83.50;;;;;;4960712;28;19930;-62
2024/01/20 10:27:03;;;;;;;;;;;0.00;83.30;;;;;;4959758;28;19930;-61
2024/01/20 10:29:36;;;;;;;;;;;0.00;83.20;;;;;;4959465;28;19931;-64
2024/01/20 10:32:11;;;;;;;;;;;0.00;83.10;;;;;;4958581;28;19926;-60
2024/01/20 10:34:45;;;;;;;;;;;0.00;82.90;;;;;;4958558;28;19937;-59
2024/01/20 10:37:19;;;;;;;;;;;0.00;82.80;;;;;;4961006;28;19927;-62
2024/01/20 10:39:53;;;;;;;;;;;0.00;82.90;;;;;;4961302;28;19926;-61
2024/01/20 10:42:30;;;;;;;;;;;0.00;83.00;;;;;;4960312;28;19930;-60
2024/01/20 10:45:04;;;;;;;;;;;0.00;82.80;;;;;;4958153;28;20277;-62
2024/01/20 10:47:41;;;;;;;;;;;0.00;83.10;;;;;;4961179;28;19930;-60
2024/01/20 10:50:14;;;;;;;;;;;0.00;82.80;;;;;;4960165;28;19930;-60
2024/01/20 10:52:48;;;;;;;;;;;0.00;82.90;;;;;;4956264;28;20430;-60
2024/01/20 10:55:15;;;;;;;;;;;0.00;83.00;;;;;;4959960;28;19930;-60
2024/01/20 10:57:49;;;;;;;;;;;0.00;82.80;;;;;;4960236;28;19973;-61
2024/01/20 11:00:23;;;;;;;;;;;0.10;82.60;;;;;;4954556;28;19934;-62
2024/01/20 11:02:58;;;;;;;;;;;0.10;82.40;;;;;;4958700;28;19931;-61
2024/01/20 11:05:33;;;;;;;;;;;0.10;82.30;;;;;;4959141;28;19953;-61
2024/01/20 11:08:06;;;;;;;;;;;0.00;82.30;;;;;;4961081;28;19927;-60
2024/01/20 11:10:40;;;;;;;;;;;0.00;82.50;;;;;;4959125;28;19960;-60
2024/01/20 11:13:14;;;;;;;;;;;0.10;82.50;;;;;;4959310;28;19966;-61
2024/01/20 11:15:50;;;;;;;;;;;0.20;82.30;;;;;;4961396;28;19934;-61
2024/01/20 11:18:26;;;;;;;;;;;0.20;82.20;;;;;;4957593;28;19970;-59
2024/01/20 11:21:01;;;;;;;;;;;0.20;82.10;;;;;;4959454;28;19931;-60
2024/01/20 11:23:33;;;;;;;;;;;0.20;81.90;;;;;;4960761;28;19930;-62
2024/01/20 11:26:10;;;;;;;;;;;0.20;82.20;;;;;;4961635;28;19930;-61
2024/01/20 11:28:44;;;;;;;;;;;0.10;82.20;;;;;;4959443;28;19936;-72
2024/01/20 11:31:53;;;;;;;;;;;0.10;82.30;;;;;;5089332;27;20336;-72
2024/01/20 11:34:26;;;;;;;;;;;0.10;82.30;;;;;;5072444;28;19937;-71
2024/01/20 11:37:00;;;;;;;;;;;0.10;82.40;;;;;;5073153;28;19931;-73
2024/01/20 11:39:33;;;;;;;;;;;0.20;82.30;;;;;;5074500;28;19951;-71
2024/01/20 11:42:06;;;;;;;;;;;0.20;82.40;;;;;;5071040;28;19937;-71
2024/01/20 11:44:39;;;;;;;;;;;0.30;82.30;;;;;;5072650;28;20063;-73
2024/01/20 11:47:14;;;;;;;;;;;0.20;82.30;;;;;;5073422;28;19936;-71
2024/01/20 11:49:47;;;;;;;;;;;0.20;82.30;;;;;;5071426;28;19979;-71
2024/01/20 11:52:20;;;;;;;;;;;0.10;82.60;;;;;;5070595;28;19974;-72
2024/01/20 11:54:53;;;;;;;;;;;0.10;82.70;;;;;;5073581;28;19932;-71
2024/01/20 11:57:27;;;;;;;;;;;0.20;82.60;;;;;;5072873;28;19925;-72
2024/01/20 12:00:00;;;;;;;;;;;0.20;82.50;;;;;;5069819;28;19950;-71
2024/01/20 12:02:35;;;;;;;;;;;0.20;82.60;;;;;;5070912;28;19936;-72
2024/01/20 12:05:09;;;;;;;;;;;0.10;82.70;;;;;;5072210;27;19932;-72
2024/01/20 12:07:35;;;;;;;;;;;0.20;82.70;;;;;;5072435;28;20375;-72
2024/01/20 12:10:08;;;;;;;;;;;0.10;82.70;;;;;;5072986;28;19947;-73
2024/01/20 12:12:41;;;;;;;;;;;0.20;82.80;;;;;;5074764;28;19925;-72
2024/01/20 12:15:09;;;;;;;;;;;0.20;82.60;;;;;;5069531;28;19943;-71
2024/01/20 12:17:44;;;;;;;;;;;0.20;82.70;;;;;;5071670;28;19929;-72
2024/01/20 12:20:19;;;;;;;;;;;0.30;82.60;;;;;;5072073;28;19933;-70
2024/01/20 12:22:55;;;;;;;;;;;0.40;82.40;;;;;;5074763;28;19925;-73
2024/01/20 12:25:28;;;;;;;;;;;0.30;82.40;;;;;;5073688;28;19924;-71
2024/01/20 12:28:02;;;;;;;;;;;0.30;82.50;;;;;;5071137;28;19987;-71
2024/01/20 12:30:35;;;;;;;;;;;0.30;82.80;;;;;;5070361;28;19924;-71
2024/01/20 12:33:10;;;;;;;;;;;0.30;82.50;;;;;;5068028;28;19963;-72
2024/01/20 12:35:43;;;;;;;;;;;0.30;82.80;;;;;;5070486;28;19924;-70
2024/01/20 12:38:16;;;;;;;;;;;0.30;82.90;;;;;;5069970;28;19924;-61
2024/01/20 12:40:49;;;;;;;;;;;0.40;82.80;;;;;;5070575;28;20011;-62
2024/01/20 12:43:22;;;;;;;;;;;0.30;82.80;;;;;;5055778;28;19986;-62
2024/01/20 12:45:55;;;;;;;;;;;0.30;83.00;;;;;;5057252;28;20540;-61
2024/01/20 12:48:30;;;;;;;;;;;0.30;83.00;;;;;;5060371;28;19956;-61
2024/01/20 12:51:04;;;;;;;;;;;0.30;83.00;;;;;;5056098;28;19936;-63
2024/01/20 12:53:37;;;;;;;;;;;0.30;83.10;;;;;;5059645;28;19932;-62
2024/01/20 12:56:10;;;;;;;;;;;0.30;83.20;;;;;;5058050;28;19925;-61
2024/01/20 12:58:43;;;;;;;;;;;0.40;83.20;;;;;;5052995;28;19946;-63
2024/01/20 13:01:18;;;;;;;;;;;0.40;83.00;;;;;;5051248;28;20686;-62
2024/01/20 13:03:53;;;;;;;;;;;0.30;83.10;;;;;;5057347;28;19929;-61
2024/01/20 13:06:29;;;;;;;;;;;0.30;83.30;;;;;;5055545;28;19960;-62
2024/01/20 13:09:02;;;;;;;;;;;0.30;83.40;;;;;;5056939;28;19999;-63
2024/01/20 13:11:36;;;;;;;;;;;0.20;83.50;;;;;;5058732;28;20027;-61
2024/01/20 13:14:09;;;;;;;;;;;0.20;83.50;;;;;;5056218;28;19939;-61
2024/01/20 13:16:43;;;;;;;;;;;0.20;83.40;;;;;;5057481;28;19928;-61
2024/01/20 13:19:18;;;;;;;;;;;0.20;83.20;;;;;;5059612;28;20019;-62
2024/01/20 13:21:51;;;;;;;;;;;0.30;83.30;;;;;;5057669;28;19929;-61
2024/01/20 13:24:25;;;;;;;;;;;0.30;83.40;;;;;;5060058;28;19932;-63
2024/01/20 13:26:58;;;;;;;;;;;0.30;83.30;;;;;;5059769;28;19931;-62
2024/01/20 13:29:31;;;;;;;;;;;0.30;83.20;;;;;;5057429;28;19935;-62
2024/01/20 13:32:06;;;;;;;;;;;0.30;83.40;;;;;;5057749;28;19929;-62
2024/01/20 13:34:41;;;;;;;;;;;0.30;83.20;;;;;;5056029;28;20015;-61
2024/01/20 13:37:14;;;;;;;;;;;0.30;83.40;;;;;;5058894;28;20361;-62
2024/01/20 13:39:47;;;;;;;;;;;0.30;83.50;;;;;;5059319;28;19947;-63
2024/01/20 13:42:20;;;;;;;;;;;0.40;83.30;;;;;;5056085;28;19932;-63
2024/01/20 13:44:53;;;;;;;;;;;0.50;83.30;;;;;;5056073;28;19933;-62
2024/01/20 13:47:20;;;;;;;;;;;0.50;83.20;;;;;;5058353;28;19929;-73
2024/01/20 13:49:55;;;;;;;;;;;0.50;83.10;;;;;;5056271;28;20338;-73
2024/01/20 13:52:28;;;;;;;;;;;0.50;83.10;;;;;;5033290;28;20341;-71
2024/01/20 13:55:01;;;;;;;;;;;0.50;83.40;;;;;;5056602;28;20373;-71
2024/01/20 13:57:34;;;;;;;;;;;0.40;83.40;;;;;;5054604;28;20029;-73
2024/01/20 14:00:11;;;;;;;;;;;0.30;83.70;;;;;;5057165;28;20406;-71
2024/01/20 14:02:46;;;;;;;;;;;0.40;83.60;;;;;;5069554;28;19925;-72
2024/01/20 14:05:21;;;;;;;;;;;0.50;83.40;;;;;;5057004;28;20029;-67
2024/01/20 14:07:54;;;;;;;;;;;0.40;83.50;;;;;;5056061;28;19924;-71
2024/01/20 14:10:27;;;;;;;;;;;0.50;83.50;;;;;;5058128;28;20341;-72
2024/01/20 14:13:00;;;;;;;;;;;0.50;83.40;;;;;;5058795;28;20410;-72
2024/01/20 14:15:38;;;;;;;;;;;0.50;83.50;;;;;;5056414;28;19964;-70
2024/01/20 14:18:11;;;;;;;;;;;0.50;83.60;;;;;;5055234;28;20012;-73
2024/01/20 14:20:46;;;;;;;;;;;0.50;83.50;;;;;;5058373;28;20007;-72
2024/01/20 14:23:19;;;;;;;;;;;0.50;83.60;;;;;;5057167;28;19928;-72
2024/01/20 14:25:53;;;;;;;;;;;0.60;83.70;;;;;;5056824;28;19928;-72
2024/01/20 14:28:26;;;;;;;;;;;0.50;83.90;;;;;;5054886;28;20025;-72
2024/01/20 14:30:59;;;;;;;;;;;0.50;83.90;;;;;;5054825;28;19986;-72
2024/01/20 14:33:32;;;;;;;;;;;0.60;83.90;;;;;;5056168;28;19928;-72
2024/01/20 14:36:07;;;;;;;;;;;0.40;84.10;;;;;;5055922;28;19932;-72
2024/01/20 14:38:40;;;;;;;;;;;0.50;84.20;;;;;;5058117;28;20294;-71
2024/01/20 14:41:14;;;;;;;;;;;0.50;84.20;;;;;;5056641;28;19979;-73
2024/01/20 14:43:48;;;;;;;;;;;0.50;84.20;;;;;;5057222;28;19929;-72
2024/01/20 14:46:21;;;;;;;;;;;0.50;84.40;;;;;;5056481;28;19940;-72
2024/01/20 14:48:54;;;;;;;;;;;0.50;84.30;;;;;;5057887;28;19931;-72
2024/01/20 14:51:29;;;;;;;;;;;0.60;84.30;;;;;;5050490;28;19935;-72
2024/01/20 14:54:04;;;;;;;;;;;0.60;84.20;;;;;;5069239;28;19925;-72
2024/01/20 14:56:44;;;;;;;;;;;0.60;84.20;;;;;;5056293;28;20020;-73
2024/01/20 14:59:17;;;;;;;;;;;0.60;84.20;;;;;;5058989;28;20007;-62
2024/01/20 15:01:50;;;;;;;;;;;0.50;84.30;;;;;;5055734;28;19933;-62
2024/01/20 15:04:23;;;;;;;;;;;0.50;84.30;;;;;;5056644;28;19924;-61
2024/01/20 15:06:59;;;;;;;;;;;0.50;84.20;;;;;;5057050;28;19925;-60
2024/01/20 15:09:32;;;;;;;;;;;0.50;84.30;;;;;;5056069;28;20014;-58
2024/01/20 15:12:06;;;;;;;;;;;0.50;84.30;;;;;;5055961;28;19924;-60
2024/01/20 15:14:40;;;;;;;;;;;0.50;84.20;;;;;;5053362;28;19929;-60
2024/01/20 15:17:13;;;;;;;;;;;0.40;84.20;;;;;;5052960;28;19941;-61
2024/01/20 15:19:46;;;;;;;;;;;0.40;84.50;;;;;;5055426;28;19929;-63